Time;durP1;ratioP1;P1;durP2;ratioP2;P2;SDS_P1;SDS_P2;PMS_P1;PMS_P2;Temp;Humidity;BMP_temperature;BMP_pressure;BME280_temperature;BME280_humidity;BME280_pressure;Samples;Min_cycle;Max_cycle;Signal;HPM_P1;HPM_P2
2023/04/19 00:02:22;;;;;;;10.93;6.90;;;;;;;18.67;39.58;102286.59;5054844;28;20067;-65
2023/04/19 00:04:48;;;;;;;10.45;6.15;;;;;;;18.69;39.58;102279.16;5037217;28;20160;-65
2023/04/19 00:07:13;;;;;;;9.15;6.03;;;;;;;18.71;39.57;102282.56;5053705;28;20473;-65
2023/04/19 00:09:38;;;;;;;9.70;6.47;;;;;;;18.72;39.11;102281.59;5036827;28;20431;-65
2023/04/19 00:12:04;;;;;;;12.38;7.40;;;;;;;18.71;39.62;102274.44;5036828;28;20037;-65
2023/04/19 00:14:29;;;;;;;8.27;6.10;;;;;;;18.76;38.96;102274.00;5036678;28;20108;-66
2023/04/19 00:16:55;;;;;;;10.57;6.63;;;;;;;18.75;40.05;102277.72;5053232;28;20028;-67
2023/04/19 00:19:21;;;;;;;10.35;5.57;;;;;;;18.72;39.64;102278.88;5053670;28;20112;-64
2023/04/19 00:21:47;;;;;;;16.08;5.95;;;;;;;18.75;39.79;102278.56;5036762;28;20033;-66
2023/04/19 00:24:12;;;;;;;16.38;6.07;;;;;;;18.73;39.46;102269.72;5036455;28;20497;-67
2023/04/19 00:26:38;;;;;;;11.38;6.18;;;;;;;18.76;39.57;102263.97;5054231;28;20040;-64
2023/04/19 00:29:03;;;;;;;10.95;5.78;;;;;;;18.75;39.10;102272.28;5036519;28;20598;-65
2023/04/19 00:31:29;;;;;;;9.40;5.97;;;;;;;18.77;40.00;102276.56;5054599;28;20155;-65
2023/04/19 00:33:55;;;;;;;10.75;6.15;;;;;;;18.77;39.73;102282.00;5053140;28;20048;-65
2023/04/19 00:36:22;;;;;;;9.15;5.97;;;;;;;18.77;39.96;102276.56;5052981;28;20057;-66
2023/04/19 00:38:47;;;;;;;11.05;6.07;;;;;;;18.76;40.00;102274.84;5036361;28;20457;-64
2023/04/19 00:41:12;;;;;;;9.88;5.82;;;;;;;18.76;39.80;102274.84;5036125;28;20546;-66
2023/04/19 00:43:38;;;;;;;10.63;6.30;;;;;;;18.74;39.96;102276.84;5054437;28;20036;-64
2023/04/19 00:46:04;;;;;;;9.55;5.55;;;;;;;18.75;39.21;102278.56;5053898;28;20413;-65
2023/04/19 00:48:30;;;;;;;10.63;5.07;;;;;;;18.76;40.04;102280.28;5053277;28;20037;-66
2023/04/19 00:50:55;;;;;;;9.27;6.10;;;;;;;18.76;39.48;102271.28;5052710;28;20075;-66
2023/04/19 00:53:20;;;;;;;11.85;6.40;;;;;;;18.77;40.13;102275.69;5036109;28;20404;-65
2023/04/19 00:55:46;;;;;;;9.35;6.13;;;;;;;18.75;39.36;102265.00;5052951;28;20495;-65
2023/04/19 00:58:12;;;;;;;9.68;6.90;;;;;;;18.76;40.07;102265.88;5035818;28;20045;-65
2023/04/19 01:00:37;;;;;;;8.73;5.78;;;;;;;18.75;39.06;102256.84;5036122;28;20041;-65
2023/04/19 01:03:03;;;;;;;8.57;5.60;;;;;;;18.76;39.70;102257.72;5052698;28;20114;-65
2023/04/19 01:05:29;;;;;;;10.30;6.35;;;;;;;18.74;40.33;102249.69;5053676;28;20558;-65
2023/04/19 01:07:54;;;;;;;9.90;6.65;;;;;;;18.78;39.92;102272.00;5052242;28;20446;-65
2023/04/19 01:10:21;;;;;;;9.32;5.57;;;;;;;18.77;39.55;102265.69;5052702;28;20033;-65
2023/04/19 01:12:47;;;;;;;11.35;7.05;;;;;;;18.76;39.77;102269.41;5053540;28;20037;-65
2023/04/19 01:15:12;;;;;;;10.18;6.03;;;;;;;18.71;40.45;102260.00;5052248;28;20471;-65
2023/04/19 01:17:38;;;;;;;10.00;6.45;;;;;;;18.72;39.29;102262.56;5035476;28;20040;-65
2023/04/19 01:20:06;;;;;;;11.30;6.57;;;;;;;18.72;39.89;102257.16;5035537;28;20029;-66
2023/04/19 01:22:32;;;;;;;9.88;6.13;;;;;;;18.73;40.08;102264.31;5053680;28;20025;-65
2023/04/19 01:24:58;;;;;;;16.48;8.18;;;;;;;18.73;39.56;102258.00;5035422;28;20037;-65
2023/04/19 01:27:23;;;;;;;11.63;6.38;;;;;;;18.74;39.97;102249.69;5018923;28;20041;-65
2023/04/19 01:29:49;;;;;;;11.45;6.80;;;;;;;18.77;40.22;102257.56;5016906;28;20048;-65
2023/04/19 01:32:16;;;;;;;14.93;6.82;;;;;;;18.79;39.76;102263.69;5026229;28;20474;-65
2023/04/19 01:34:41;;;;;;;12.43;6.38;;;;;;;18.78;39.56;102255.72;4999885;28;20033;-65
2023/04/19 01:37:07;;;;;;;14.27;5.90;;;;;;;18.78;40.17;102262.00;5017765;28;20091;-65
2023/04/19 01:39:32;;;;;;;16.92;6.43;;;;;;;18.80;39.77;102264.53;5032210;28;20448;-65
2023/04/19 01:41:58;;;;;;;12.65;7.15;;;;;;;18.79;39.61;102258.25;5015472;28;20033;-65
2023/04/19 01:44:23;;;;;;;12.88;6.50;;;;;;;18.80;39.67;102254.56;5031902;28;20030;-65
2023/04/19 01:46:48;;;;;;;10.18;6.70;;;;;;;18.80;39.88;102254.56;5032282;28;20444;-65
2023/04/19 01:49:15;;;;;;;11.63;6.68;;;;;;;18.82;39.59;102252.53;5031775;28;20045;-66
2023/04/19 01:51:40;;;;;;;10.25;6.00;;;;;;;18.85;39.37;102257.66;5031636;28;20037;-66
2023/04/19 01:54:05;;;;;;;9.93;6.43;;;;;;;18.82;39.63;102251.66;5031635;28;20080;-65
2023/04/19 01:56:31;;;;;;;12.80;6.55;;;;;;;18.84;40.45;102255.97;5015294;28;20033;-65
2023/04/19 01:58:57;;;;;;;14.73;6.63;;;;;;;18.86;40.27;102251.25;5031702;28;20045;-65
2023/04/19 02:01:22;;;;;;;10.88;6.53;;;;;;;18.85;40.05;102252.25;5032079;28;20419;-65
2023/04/19 02:03:48;;;;;;;10.43;5.95;;;;;;;18.86;39.80;102253.97;5014807;28;20041;-66
2023/04/19 02:06:13;;;;;;;10.25;6.25;;;;;;;18.84;40.41;102241.53;5015111;28;20463;-65
2023/04/19 02:08:40;;;;;;;9.75;5.72;;;;;;;18.87;39.83;102246.69;5014967;28;20029;-65
2023/04/19 02:11:10;;;;;;;12.00;6.68;;;;;;;18.83;39.47;102240.69;5015016;28;20032;-65
2023/04/19 02:13:36;;;;;;;12.52;7.22;;;;;;;18.82;39.71;102241.66;5031888;28;20104;-65
2023/04/19 02:16:02;;;;;;;13.50;6.82;;;;;;;18.78;39.62;102245.72;5031477;28;20416;-65
2023/04/19 02:18:28;;;;;;;15.52;7.90;;;;;;;18.76;40.38;102234.13;5032708;28;20033;-66
2023/04/19 02:20:54;;;;;;;12.40;7.60;;;;;;;18.70;40.47;102237.44;5032617;28;20032;-66
2023/04/19 02:23:20;;;;;;;13.02;6.88;;;;;;;18.68;40.10;102234.00;5015247;28;20037;-65
2023/04/19 02:25:45;;;;;;;10.18;6.45;;;;;;;18.66;40.59;102224.28;5032238;28;20445;-66
2023/04/19 02:28:11;;;;;;;11.98;7.38;;;;;;;18.62;40.65;102221.00;5031714;28;20461;-65
2023/04/19 02:30:36;;;;;;;10.98;6.95;;;;;;;18.60;40.16;102220.31;5033183;28;20088;-66
2023/04/19 02:33:01;;;;;;;13.13;7.75;;;;;;;18.58;40.64;102227.75;5015415;28;20034;-65
2023/04/19 02:35:27;;;;;;;11.73;6.60;;;;;;;18.53;40.23;102230.91;5031590;28;20045;-65
2023/04/19 02:37:52;;;;;;;11.77;6.60;;;;;;;18.50;40.70;102235.78;5015787;28;20025;-65
2023/04/19 02:40:18;;;;;;;13.98;7.05;;;;;;;18.44;39.54;102228.19;5031918;28;20505;-65
2023/04/19 02:42:43;;;;;;;13.23;6.72;;;;;;;18.42;40.75;102232.91;5015238;28;20034;-65
2023/04/19 02:45:09;;;;;;;13.75;7.90;;;;;;;18.37;39.90;102232.50;5016231;28;20554;-66
2023/04/19 02:47:34;;;;;;;14.40;7.22;;;;;;;18.30;40.90;102228.63;5036999;28;20112;-64
2023/04/19 02:50:00;;;;;;;12.43;6.70;;;;;;;18.26;40.24;102232.63;5035661;28;20060;-65
2023/04/19 02:52:26;;;;;;;12.93;7.03;;;;;;;18.25;40.19;102228.22;5036765;28;20029;-65
2023/04/19 02:54:52;;;;;;;13.00;6.60;;;;;;;18.21;40.13;102237.63;5018993;28;20433;-65
2023/04/19 02:57:17;;;;;;;13.85;6.68;;;;;;;18.19;41.51;102235.06;5036879;28;20086;-65
2023/04/19 02:59:42;;;;;;;17.67;6.88;;;;;;;18.14;40.72;102239.22;5035493;28;20041;-65
2023/04/19 03:02:08;;;;;;;14.02;7.63;;;;;;;18.12;40.43;102233.91;5036208;28;20106;-66
2023/04/19 03:04:33;;;;;;;14.63;7.65;;;;;;;18.10;41.28;102237.78;5034905;28;20046;-65
2023/04/19 03:06:59;;;;;;;14.07;7.43;;;;;;;18.07;41.09;102240.78;5001809;28;20052;-65
2023/04/19 03:09:24;;;;;;;13.40;7.55;;;;;;;18.06;41.16;102242.66;5034654;28;20026;-65
2023/04/19 03:11:51;;;;;;;12.95;7.22;;;;;;;18.06;41.18;102230.94;5034997;28;20029;-66
2023/04/19 03:14:16;;;;;;;17.00;8.32;;;;;;;18.04;41.28;102236.50;5035929;28;20041;-65
2023/04/19 03:16:42;;;;;;;15.65;7.78;;;;;;;18.01;41.02;102234.06;5034977;28;20034;-65
2023/04/19 03:19:07;;;;;;;13.48;7.70;;;;;;;17.98;41.34;102240.63;5035587;28;20405;-65
2023/04/19 03:21:32;;;;;;;11.82;6.97;;;;;;;17.96;41.18;102234.50;5034347;28;20033;-65
2023/04/19 03:23:58;;;;;;;12.98;6.95;;;;;;;17.95;41.24;102235.50;5034377;28;20049;-65
2023/04/19 03:26:23;;;;;;;16.30;8.82;;;;;;;17.93;40.89;102229.38;5017810;28;20104;-65
2023/04/19 03:28:48;;;;;;;15.80;7.43;;;;;;;17.94;41.71;102236.50;5034788;28;20134;-65
2023/04/19 03:31:14;;;;;;;13.00;6.85;;;;;;;17.93;40.73;102234.78;5001362;28;20029;-66
2023/04/19 03:33:39;;;;;;;15.25;8.23;;;;;;;17.92;42.21;102241.19;5035531;28;20034;-65
2023/04/19 03:36:05;;;;;;;21.17;8.43;;;;;;;17.91;41.62;102234.09;5017754;28;20497;-66
2023/04/19 03:38:31;;;;;;;12.98;7.65;;;;;;;17.91;41.07;102236.78;5001841;28;20033;-65
2023/04/19 03:40:56;;;;;;;14.77;7.45;;;;;;;17.93;41.78;102240.22;5033984;28;20033;-66
2023/04/19 03:43:24;;;;;;;16.90;8.00;;;;;;;17.94;41.26;102233.81;5034443;28;20029;-65
2023/04/19 03:45:49;;;;;;;17.67;7.07;;;;;;;17.94;41.88;102222.09;5001715;28;20508;-66
2023/04/19 03:48:15;;;;;;;16.00;7.80;;;;;;;17.95;42.15;102223.81;5032969;28;20044;-65
2023/04/19 03:50:41;;;;;;;16.55;7.35;;;;;;;17.97;41.35;102222.69;5035166;28;20029;-65
2023/04/19 03:53:06;;;;;;;16.90;8.00;;;;;;;17.98;42.02;102226.22;5034910;28;20029;-65
2023/04/19 03:55:32;;;;;;;15.30;8.10;;;;;;;17.98;41.85;102218.94;5033984;28;20024;-66
2023/04/19 03:57:57;;;;;;;19.52;7.93;;;;;;;18.02;42.33;102219.53;5033633;28;20046;-65
2023/04/19 04:00:23;;;;;;;12.48;7.63;;;;;;;18.03;40.88;102215.81;5033686;28;20091;-65
2023/04/19 04:02:49;;;;;;;14.52;8.13;;;;;;;18.05;41.33;102213.81;5017360;28;20037;-65
2023/04/19 04:05:14;;;;;;;18.33;8.73;;;;;;;18.07;41.58;102217.22;5000760;28;20508;-65
2023/04/19 04:07:40;;;;;;;18.10;8.10;;;;;;;18.07;41.51;102221.78;5033940;28;20026;-66
2023/04/19 04:10:06;;;;;;;13.75;7.68;;;;;;;18.07;42.36;102216.38;5017186;28;20033;-65
2023/04/19 04:12:31;;;;;;;16.10;7.63;;;;;;;18.08;41.64;102215.38;5035090;28;20034;-66
2023/04/19 04:14:57;;;;;;;13.18;7.35;;;;;;;18.08;41.98;102220.81;5016625;28;20072;-65
2023/04/19 04:17:23;;;;;;;14.95;7.40;;;;;;;18.07;41.78;102214.50;5016970;28;20036;-65
2023/04/19 04:19:49;;;;;;;16.85;8.45;;;;;;;18.04;41.96;102212.94;5017477;28;20104;-65
2023/04/19 04:22:15;;;;;;;12.77;7.75;;;;;;;18.08;42.15;102218.09;5033368;28;20128;-65
2023/04/19 04:24:41;;;;;;;18.48;8.40;;;;;;;18.07;42.29;102227.22;5000595;28;20112;-65
2023/04/19 04:27:09;;;;;;;12.77;6.70;;;;;;;18.08;41.88;102223.50;5033290;28;20501;-65
2023/04/19 04:29:37;;;;;;;12.43;6.35;;;;;;;18.08;41.84;102226.22;5033466;28;20083;-65
2023/04/19 04:32:07;;;;;;;14.32;7.18;;;;;;;18.08;41.95;102228.94;5033212;28;20097;-65
2023/04/19 04:34:32;;;;;;;15.35;7.20;;;;;;;18.04;42.53;102222.94;5033440;28;20492;-65
2023/04/19 04:36:57;;;;;;;13.32;8.20;;;;;;;18.06;42.79;102225.53;5033238;28;20037;-65
2023/04/19 04:39:23;;;;;;;14.07;7.15;;;;;;;18.06;42.57;102225.53;5033223;28;20075;-66
2023/04/19 04:41:50;;;;;;;12.80;7.22;;;;;;;18.07;43.17;102224.50;5016381;28;20033;-65
2023/04/19 04:44:16;;;;;;;11.98;7.25;;;;;;;18.09;41.67;102236.91;5000550;28;20083;-65
2023/04/19 04:46:41;;;;;;;10.88;6.68;;;;;;;18.11;42.82;102229.50;5016978;28;20037;-65
2023/04/19 04:49:06;;;;;;;16.73;7.90;;;;;;;18.11;42.14;102226.81;5033195;28;20501;-66
2023/04/19 04:51:33;;;;;;;10.93;5.88;;;;;;;18.16;42.73;102231.78;5034195;28;20026;-65
2023/04/19 04:53:58;;;;;;;12.80;7.07;;;;;;;18.15;43.12;102232.78;5033011;28;20132;-65
2023/04/19 04:56:25;;;;;;;14.10;8.73;;;;;;;18.17;42.63;102238.94;5033005;28;20112;-65
2023/04/19 04:58:50;;;;;;;13.82;6.15;;;;;;;18.18;42.22;102236.06;5017947;28;20025;-65
2023/04/19 05:01:18;;;;;;;12.63;6.90;;;;;;;18.20;42.17;102238.66;5032707;28;20506;-65
2023/04/19 05:03:44;;;;;;;16.25;6.85;;;;;;;18.22;42.36;102240.22;5033637;28;20054;-65
2023/04/19 05:06:09;;;;;;;13.32;6.40;;;;;;;18.18;42.88;102235.19;5032452;28;20033;-65
2023/04/19 05:08:35;;;;;;;11.15;7.15;;;;;;;18.26;43.10;102238.03;5031645;28;20032;-65
2023/04/19 05:11:00;;;;;;;13.52;6.93;;;;;;;18.27;42.21;102226.19;5015997;28;20079;-66
2023/04/19 05:13:26;;;;;;;12.90;6.93;;;;;;;18.30;42.55;102226.78;5016307;28;20049;-65
2023/04/19 05:15:51;;;;;;;19.73;6.53;;;;;;;18.35;42.20;102237.19;4999601;28;20524;-66
2023/04/19 05:18:16;;;;;;;11.73;6.65;;;;;;;18.37;43.35;102235.22;5015815;28;20506;-64
2023/04/19 05:20:42;;;;;;;13.07;6.93;;;;;;;18.40;42.34;102240.31;5015681;28;20029;-67
2023/04/19 05:23:10;;;;;;;14.35;7.22;;;;;;;18.41;42.05;102236.59;5032089;28;20029;-65
2023/04/19 05:25:37;;;;;;;11.95;6.85;;;;;;;18.46;42.16;102237.03;5033838;28;20393;-64
2023/04/19 05:28:04;;;;;;;10.15;6.00;;;;;;;18.47;42.29;102244.16;5032086;28;20060;-67
2023/04/19 05:30:29;;;;;;;14.48;7.07;;;;;;;18.50;42.41;102227.63;5033205;28;20040;-66
2023/04/19 05:32:55;;;;;;;12.23;6.25;;;;;;;18.55;42.62;102233.47;5015446;28;20108;-66
2023/04/19 05:35:20;;;;;;;16.17;7.38;;;;;;;18.58;42.74;102233.19;5031990;28;20362;-66
2023/04/19 05:37:46;;;;;;;15.43;7.07;;;;;;;18.60;42.60;102226.59;5032426;28;20025;-66
2023/04/19 05:40:12;;;;;;;14.50;6.65;;;;;;;18.59;42.09;102224.06;4999145;28;20026;-66
2023/04/19 05:42:38;;;;;;;11.00;5.90;;;;;;;18.62;42.91;102223.72;5033192;28;20408;-66
2023/04/19 05:45:05;;;;;;;13.07;6.65;;;;;;;18.69;42.35;102229.44;5015419;28;20040;-66
2023/04/19 05:47:30;;;;;;;13.13;6.50;;;;;;;18.74;42.59;102218.97;5015741;28;20068;-66
2023/04/19 05:49:56;;;;;;;13.32;6.47;;;;;;;18.75;42.15;102223.41;5032067;28;20094;-66
2023/04/19 05:52:21;;;;;;;13.70;6.57;;;;;;;18.84;41.64;102219.81;5016207;28;20036;-66
2023/04/19 05:54:46;;;;;;;12.00;6.40;;;;;;;18.86;42.21;102220.53;5033210;28;20424;-66
2023/04/19 05:57:12;;;;;;;11.00;5.72;;;;;;;19.10;41.76;102218.13;5033413;28;20034;-67
2023/04/19 05:59:37;;;;;;;12.55;6.30;;;;;;;19.27;42.12;102213.72;5034066;28;20124;-67
2023/04/19 06:02:03;;;;;;;13.80;5.75;;;;;;;19.30;41.56;102224.31;4998786;28;20030;-66
2023/04/19 06:04:29;;;;;;;15.32;6.95;;;;;;;19.35;41.87;102227.41;5031710;28;20056;-66
2023/04/19 06:06:54;;;;;;;11.70;5.65;;;;;;;19.35;42.01;102224.69;5015085;28;20041;-67
2023/04/19 06:09:20;;;;;;;12.88;6.45;;;;;;;19.33;41.87;102224.00;5031387;28;20053;-66
2023/04/19 06:11:45;;;;;;;8.38;5.22;;;;;;;19.27;41.64;102214.59;5031686;28;20494;-67
2023/04/19 06:14:14;;;;;;;15.02;6.10;;;;;;;19.28;41.47;102220.88;5031540;28;20029;-66
2023/04/19 06:16:39;;;;;;;13.85;5.80;;;;;;;19.24;42.13;102220.31;5048662;28;20082;-67
2023/04/19 06:19:06;;;;;;;13.07;6.30;;;;;;;19.25;41.76;102221.19;5032276;28;20493;-66
2023/04/19 06:21:32;;;;;;;9.68;5.55;;;;;;;19.24;41.84;102214.03;5036848;28;20033;-66
2023/04/19 06:23:57;;;;;;;12.15;5.70;;;;;;;19.30;41.50;102229.72;5002745;28;20038;-67
2023/04/19 06:26:23;;;;;;;8.32;5.95;;;;;;;19.33;41.34;102232.16;5035626;28;20113;-66
2023/04/19 06:28:48;;;;;;;15.77;5.53;;;;;;;19.37;41.47;102230.84;5037293;28;20021;-67
2023/04/19 06:31:14;;;;;;;8.90;5.18;;;;;;;19.38;41.56;102227.09;5001546;28;20038;-66
2023/04/19 06:33:39;;;;;;;11.52;5.40;;;;;;;19.36;41.46;102218.25;5035166;28;20033;-67
2023/04/19 06:36:05;;;;;;;11.27;5.43;;;;;;;19.39;41.36;102228.88;5028983;28;20043;-67
2023/04/19 06:38:30;;;;;;;11.57;5.32;;;;;;;19.37;41.11;102222.69;5018899;28;20028;-67
2023/04/19 06:40:55;;;;;;;9.60;5.32;;;;;;;19.36;41.33;102230.00;5035169;28;20031;-67
2023/04/19 06:43:22;;;;;;;14.95;5.60;;;;;;;19.33;40.96;102219.44;5035632;28;20029;-67
2023/04/19 06:45:47;;;;;;;9.10;4.72;;;;;;;19.38;41.41;102224.41;5015070;28;20042;-67
2023/04/19 06:48:12;;;;;;;8.05;4.00;;;;;;;19.40;41.16;102230.59;5015165;28;20034;-67
2023/04/19 06:50:38;;;;;;;8.75;4.53;;;;;;;19.45;41.00;102233.69;5031878;28;20037;-67
2023/04/19 06:53:03;;;;;;;9.80;4.70;;;;;;;19.50;40.83;102242.25;5031906;28;20080;-67
2023/04/19 06:55:29;;;;;;;10.88;4.60;;;;;;;19.56;40.50;102236.19;5016805;28;20457;-67
2023/04/19 06:57:54;;;;;;;10.57;5.00;;;;;;;19.61;40.45;102234.72;5016418;28;20030;-67
2023/04/19 07:00:20;;;;;;;8.20;4.10;;;;;;;19.66;40.78;102232.41;5014916;28;20453;-67
2023/04/19 07:02:46;;;;;;;7.32;4.53;;;;;;;19.82;40.58;102236.31;5031440;28;20030;-68
2023/04/19 07:05:12;;;;;;;9.23;4.22;;;;;;;19.77;40.48;102226.75;5031182;28;20133;-67
2023/04/19 07:07:40;;;;;;;10.48;3.78;;;;;;;19.83;40.17;102232.56;5015263;28;20022;-67
2023/04/19 07:10:06;;;;;;;6.13;3.80;;;;;;;20.35;39.32;102229.00;5016155;28;20034;-67
2023/04/19 07:12:31;;;;;;;8.68;3.15;;;;;;;20.46;39.28;102241.50;5031231;28;20034;-67
2023/04/19 07:14:57;;;;;;;9.68;3.05;;;;;;;20.57;38.96;102230.34;5014761;28;20087;-67
2023/04/19 07:17:22;;;;;;;7.43;2.92;;;;;;;20.75;38.53;102223.81;5014756;28;20550;-67
2023/04/19 07:19:48;;;;;;;5.53;3.40;;;;;;;21.05;38.22;102227.88;5015151;28;20030;-67
2023/04/19 07:22:14;;;;;;;4.95;3.20;;;;;;;21.39;38.01;102217.84;5014712;28;20042;-68
2023/04/19 07:24:40;;;;;;;7.40;3.78;;;;;;;21.64;38.62;102228.81;5014673;28;20040;-67
2023/04/19 07:27:06;;;;;;;6.32;3.85;;;;;;;21.88;38.41;102223.44;5030919;28;20033;-67
2023/04/19 07:29:33;;;;;;;6.47;3.30;;;;;;;22.22;37.24;102223.28;5014543;28;20064;-67
2023/04/19 07:32:00;;;;;;;6.88;3.47;;;;;;;22.51;37.58;102219.00;5030306;28;20026;-67
2023/04/19 07:34:26;;;;;;;4.82;3.25;;;;;;;22.84;36.80;102224.41;5016330;28;20026;-68
2023/04/19 07:36:51;;;;;;;6.20;3.30;;;;;;;23.12;36.81;102223.81;5030944;28;20030;-68
2023/04/19 07:39:17;;;;;;;5.50;3.10;;;;;;;23.37;36.49;102232.75;5031059;28;20029;-67
2023/04/19 07:41:43;;;;;;;3.80;2.75;;;;;;;23.49;35.97;102225.88;5030821;28;20037;-68
2023/04/19 07:44:10;;;;;;;4.18;2.70;;;;;;;23.62;35.23;102220.66;5030768;28;20422;-68
2023/04/19 07:46:35;;;;;;;6.45;2.90;;;;;;;23.77;35.59;102207.94;5014491;28;20050;-68
2023/04/19 07:49:01;;;;;;;4.85;2.67;;;;;;;24.04;34.74;102219.34;5014040;28;20087;-68
2023/04/19 07:51:26;;;;;;;7.35;3.42;;;;;;;24.25;34.69;102216.81;4997935;28;20518;-68
2023/04/19 07:53:52;;;;;;;5.55;3.13;;;;;;;24.43;34.88;102217.31;5030670;28;20493;-68
2023/04/19 07:56:19;;;;;;;5.75;2.90;;;;;;;24.55;34.56;102218.56;5013939;28;20486;-67
2023/04/19 07:58:44;;;;;;;4.80;3.38;;;;;;;24.78;34.70;102208.41;5014225;28;20030;-69
2023/04/19 08:01:10;;;;;;;4.63;3.17;;;;;;;25.03;33.82;102209.00;5015027;28;20449;-68
2023/04/19 08:03:36;;;;;;;8.73;4.20;;;;;;;25.23;33.75;102212.84;5015148;28;20100;-67
2023/04/19 08:06:04;;;;;;;9.75;3.70;;;;;;;25.44;33.56;102214.78;5030394;28;20056;-69
2023/04/19 08:08:30;;;;;;;10.50;4.15;;;;;;;25.62;33.68;102207.03;5013599;28;20041;-68
2023/04/19 08:10:56;;;;;;;8.98;4.50;;;;;;;25.80;33.42;102206.56;5014819;28;20030;-69
2023/04/19 08:13:21;;;;;;;5.15;4.13;;;;;;;25.97;33.17;102208.88;5030447;28;20022;-68
2023/04/19 08:15:46;;;;;;;6.63;3.83;;;;;;;26.14;32.90;102200.38;5013405;28;20034;-68
2023/04/19 08:18:12;;;;;;;8.25;4.03;;;;;;;26.33;32.63;102194.19;5014740;28;20049;-68
2023/04/19 08:20:37;;;;;;;4.53;3.20;;;;;;;26.52;32.42;102199.03;5029879;28;20037;-68
2023/04/19 08:23:05;;;;;;;7.10;4.15;;;;;;;26.72;32.28;102194.47;5013314;28;20032;-69
2023/04/19 08:25:30;;;;;;;6.93;3.35;;;;;;;26.90;32.50;102199.50;5029951;28;20498;-69
2023/04/19 08:27:57;;;;;;;7.40;3.90;;;;;;;27.09;32.28;102205.09;5013203;28;20038;-70
2023/04/19 08:30:23;;;;;;;6.55;3.35;;;;;;;27.27;31.42;102203.72;5013280;28;20038;-70
2023/04/19 08:32:48;;;;;;;7.10;4.13;;;;;;;27.39;31.63;102194.63;5013140;28;20053;-69
2023/04/19 08:35:13;;;;;;;5.38;3.83;;;;;;;27.42;31.79;102201.66;5029744;28;20066;-70
2023/04/19 08:37:39;;;;;;;7.35;4.53;;;;;;;27.53;31.32;102196.41;5030121;28;20482;-70
2023/04/19 08:40:05;;;;;;;7.32;4.63;;;;;;;27.60;30.42;102185.44;5014527;28;20045;-68
2023/04/19 08:42:31;;;;;;;6.57;4.07;;;;;;;27.47;30.69;102190.91;5028745;28;20030;-69
2023/04/19 08:45:04;;;;;;;5.40;3.95;;;;;;;27.25;31.13;102197.56;5012844;28;20502;-68
2023/04/19 08:47:31;;;;;;;9.32;4.28;;;;;;;27.36;31.22;102191.47;5012916;28;20030;-68
2023/04/19 08:49:59;;;;;;;7.38;4.28;;;;;;;27.58;30.21;102195.81;5012908;28;20041;-68
2023/04/19 08:52:26;;;;;;;8.25;4.07;;;;;;;27.74;30.75;102185.25;5013227;28;20108;-69
2023/04/19 08:54:55;;;;;;;7.43;4.13;;;;;;;27.88;29.98;102191.63;5029680;28;20120;-69
2023/04/19 08:57:21;;;;;;;5.25;3.70;;;;;;;27.91;29.56;102190.38;5029447;28;20026;-69
2023/04/19 08:59:50;;;;;;;7.45;4.38;;;;;;;27.94;29.18;102190.81;5029151;28;20041;-69
2023/04/19 09:02:15;;;;;;;7.97;3.80;;;;;;;27.92;29.13;102187.38;5013868;28;20477;-69
2023/04/19 09:04:40;;;;;;;6.07;3.85;;;;;;;27.94;28.90;102185.28;5014185;28;20050;-69
2023/04/19 09:07:07;;;;;;;8.30;4.20;;;;;;;27.94;29.35;102173.41;5012589;28;20104;-69
2023/04/19 09:09:32;;;;;;;5.15;3.55;;;;;;;28.01;28.33;102185.28;5012617;28;20034;-69
2023/04/19 09:11:58;;;;;;;9.88;4.82;;;;;;;28.05;28.60;102178.31;5028881;28;20402;-69
2023/04/19 09:14:27;;;;;;;5.55;3.97;;;;;;;28.15;28.57;102176.84;5012570;28;20030;-69
2023/04/19 09:16:53;;;;;;;10.25;4.15;;;;;;;28.24;28.57;102183.00;5012450;28;20037;-69
2023/04/19 09:19:18;;;;;;;6.40;3.22;;;;;;;28.28;28.16;102176.00;5012370;28;20041;-68
2023/04/19 09:21:44;;;;;;;7.53;2.65;;;;;;;28.41;27.77;102172.38;5013808;28;20030;-69
2023/04/19 09:24:09;;;;;;;8.18;3.70;;;;;;;28.54;28.55;102164.06;5028801;28;20413;-69
2023/04/19 09:26:35;;;;;;;3.67;3.03;;;;;;;28.71;27.54;102170.88;5029013;28;20030;-69
2023/04/19 09:29:03;;;;;;;9.63;3.28;;;;;;;28.82;27.47;102150.88;5028835;28;20068;-68
2023/04/19 09:31:30;;;;;;;6.35;3.72;;;;;;;28.94;27.48;102160.19;5014221;28;20017;-68
2023/04/19 09:33:56;;;;;;;4.60;3.20;;;;;;;29.09;27.68;102155.22;5012333;28;20516;-68
2023/04/19 09:36:32;;;;;;;5.88;3.20;;;;;;;29.15;26.68;102162.66;5028755;28;20042;-68
2023/04/19 09:38:58;;;;;;;6.75;3.53;;;;;;;29.20;27.45;102162.81;5028719;28;20042;-68
2023/04/19 09:41:24;;;;;;;6.22;3.40;;;;;;;29.30;26.60;102154.97;5028785;28;20108;-70
2023/04/19 09:43:51;;;;;;;7.22;3.38;;;;;;;29.47;26.53;102159.97;5012622;28;20032;-69
2023/04/19 09:46:28;;;;;;;4.25;2.72;;;;;;;29.80;26.35;102160.63;5012126;28;20037;-69
2023/04/19 09:48:54;;;;;;;5.25;4.53;;;;;;;30.40;25.61;102156.34;5013186;28;20037;-69
2023/04/19 09:51:19;;;;;;;4.80;3.85;;;;;;;31.28;25.48;102143.81;5012007;28;20030;-69
2023/04/19 09:53:45;;;;;;;6.57;3.55;;;;;;;32.92;23.51;102156.88;5028020;28;20077;-69
2023/04/19 09:56:11;;;;;;;8.27;3.33;;;;;;;34.80;22.36;102154.50;5011834;28;20401;-69
2023/04/19 09:58:37;;;;;;;5.47;2.92;;;;;;;34.68;21.85;102132.31;5012507;28;20030;-69
2023/04/19 10:01:03;;;;;;;7.30;3.70;;;;;;;33.95;22.21;102136.16;5013028;28;20045;-69
2023/04/19 10:03:29;;;;;;;3.83;2.88;;;;;;;33.44;23.20;102128.00;5011674;28;20576;-69
2023/04/19 10:05:56;;;;;;;8.65;3.63;;;;;;;33.10;23.62;102126.19;5013035;28;20453;-69
2023/04/19 10:08:21;;;;;;;6.40;2.85;;;;;;;32.91;23.69;102133.00;5028189;28;20088;-69
2023/04/19 10:10:51;;;;;;;10.45;3.72;;;;;;;32.90;23.69;102122.97;4995835;28;20022;-69
2023/04/19 10:13:22;;;;;;;3.25;2.58;;;;;;;32.97;23.20;102132.81;5027622;28;20033;-70
2023/04/19 10:15:47;;;;;;;6.22;3.05;;;;;;;33.06;22.47;102124.97;5027688;28;20466;-68
2023/04/19 10:18:13;;;;;;;9.27;3.17;;;;;;;33.17;23.15;102132.44;5028156;28;20054;-68
2023/04/19 10:20:58;;;;;;;6.60;2.63;;;;;;;33.29;21.89;102122.13;5011677;28;20057;-69
2023/04/19 10:23:24;;;;;;;4.22;3.05;;;;;;;33.49;21.73;102125.31;5028824;28;20113;-69
2023/04/19 10:25:54;;;;;;;4.80;2.47;;;;;;;33.73;21.97;102121.31;5013487;28;20489;-69
2023/04/19 10:28:20;;;;;;;2.72;2.45;;;;;;;33.95;22.45;102108.34;5013997;28;20041;-69
2023/04/19 10:31:00;;;;;;;4.65;2.80;;;;;;;34.21;20.98;102125.47;5013822;28;20402;-69
2023/04/19 10:33:27;;;;;;;5.18;2.35;;;;;;;34.39;21.54;102130.78;5011530;28;20038;-69
2023/04/19 10:35:59;;;;;;;2.95;2.40;;;;;;;34.50;21.01;102115.91;5011612;28;20489;-69
2023/04/19 10:38:46;;;;;;;3.53;2.35;;;;;;;34.48;20.63;102120.88;5027937;28;20401;-69
2023/04/19 10:41:15;;;;;;;4.72;2.15;;;;;;;34.48;21.30;102129.22;5011482;28;20076;-69
2023/04/19 10:43:45;;;;;;;3.45;2.20;;;;;;;34.27;20.78;102133.66;5012967;28;20022;-69
2023/04/19 10:46:19;;;;;;;7.10;2.53;;;;;;;34.09;20.31;102108.06;5011493;28;20035;-69
2023/04/19 10:48:53;;;;;;;3.00;2.55;;;;;;;34.04;20.24;102110.69;5011359;28;20033;-69
2023/04/19 10:51:21;;;;;;;4.15;2.45;;;;;;;33.81;20.02;102115.34;5011641;28;20561;-69
2023/04/19 10:53:59;;;;;;;4.05;2.50;;;;;;;33.91;20.52;102109.97;5028158;28;20041;-69
2023/04/19 10:56:34;;;;;;;8.32;2.78;;;;;;;34.06;19.91;102111.31;5011315;28;20486;-69
2023/04/19 10:59:00;;;;;;;4.07;2.50;;;;;;;34.19;20.37;102111.84;5012568;28;20072;-68
2023/04/19 11:01:42;;;;;;;4.82;2.45;;;;;;;34.35;19.83;102102.59;5012913;28;20022;-69
2023/04/19 11:04:08;;;;;;;;;;;;;;;34.42;20.10;102099.66;5027815;28;20042;-69
2023/04/19 11:06:34;;;;;;;3.08;2.30;;;;;;;34.43;20.68;102098.53;5012840;28;19917;-69
2023/04/19 11:08:59;;;;;;;2.53;1.73;;;;;;;34.52;20.89;102102.56;5014795;28;20038;-69
2023/04/19 11:11:25;;;;;;;3.53;2.20;;;;;;;34.73;20.38;102104.53;5031478;28;20030;-69
2023/04/19 11:13:52;;;;;;;6.10;2.40;;;;;;;34.86;19.38;102093.03;5015280;28;20025;-69
2023/04/19 11:16:18;;;;;;;3.67;2.00;;;;;;;34.94;20.21;102089.78;5014734;28;20418;-69
2023/04/19 11:18:43;;;;;;;1.75;1.60;;;;;;;35.02;19.55;102089.31;5031767;28;20038;-69